createdAt,value
2023-04-02T08:31:17.216Z,1.80
2023-04-02T08:36:20.120Z,1.90
2023-04-02T08:41:27.626Z,1.75
2023-04-02T08:46:41.320Z,2.15
2023-04-02T08:51:45.051Z,2.20
2023-04-02T08:56:55.566Z,2.08
2023-04-02T09:02:21.681Z,1.88
2023-04-02T09:07:23.904Z,1.95
2023-04-02T09:12:29.531Z,2.33
2023-04-02T09:17:42.798Z,2.40
2023-04-02T09:22:51.303Z,2.30
2023-04-02T09:27:55.656Z,2.60
2023-04-02T09:33:07.816Z,2.65
2023-04-02T09:38:09.847Z,3.28
2023-04-02T09:43:18.031Z,3.00
2023-04-02T09:48:33.864Z,3.10
2023-04-02T09:53:42.533Z,3.38
2023-04-02T09:58:46.104Z,3.47
2023-04-02T10:03:47.901Z,3.50
2023-04-02T10:08:49.681Z,3.97
2023-04-02T10:14:04.584Z,3.80
2023-04-02T10:19:25.160Z,4.40
2023-04-02T10:24:28.710Z,4.95
2023-04-02T10:29:33.397Z,4.53
2023-04-02T10:34:42.812Z,4.40
2023-04-02T10:39:53.451Z,4.32
2023-04-02T10:45:01.205Z,4.95
2023-04-02T10:50:15.154Z,4.80
2023-04-02T10:55:21.235Z,4.75
2023-04-02T11:00:31.057Z,5.10
2023-04-02T11:05:40.241Z,5.68
2023-04-02T11:10:46.868Z,4.13
2023-04-02T11:15:48.898Z,4.93
2023-04-02T11:20:51.095Z,3.40
2023-04-02T11:26:27.830Z,3.60
2023-04-02T11:31:29.641Z,3.45
2023-04-02T11:36:50.853Z,3.50
2023-04-02T11:42:05.034Z,3.67
2023-04-02T11:47:24.166Z,3.20
2023-04-02T11:52:34.042Z,3.33
2023-04-02T11:58:07.422Z,2.97
2023-04-02T12:03:25.626Z,2.90
2023-04-02T12:08:56.994Z,3.40
2023-04-02T12:14:00.150Z,2.83
2023-04-02T12:19:03.551Z,2.60
2023-04-02T12:24:06.346Z,0.60
2023-04-02T12:34:30.136Z,1.63
2023-04-02T12:39:34.548Z,1.05
2023-04-02T12:44:36.328Z,1.02
2023-04-02T12:49:41.339Z,1.20
2023-04-02T12:54:49.683Z,0.70
2023-04-02T12:59:52.605Z,0.80
2023-04-02T13:04:57.017Z,0.80
2023-04-02T13:10:00.868Z,0.95
2023-04-02T13:15:06.399Z,1.88
2023-04-02T13:20:27.899Z,1.10
2023-04-02T13:25:34.584Z,1.10
2023-04-02T13:30:37.094Z,1.30
2023-04-02T13:35:38.991Z,1.10
2023-04-02T13:40:41.233Z,1.23
2023-04-02T13:45:44.123Z,1.58
2023-04-02T13:55:49.205Z,1.77
2023-04-02T14:00:51.185Z,1.50
2023-04-02T14:05:58.996Z,1.30
2023-04-02T14:11:19.436Z,1.50
2023-04-02T14:16:44.044Z,1.50
2023-04-02T14:21:57.317Z,1.65
2023-04-02T14:27:32.789Z,1.73
2023-04-02T14:32:53.398Z,3.75
2023-04-02T14:38:23.923Z,2.00
2023-04-02T14:43:31.372Z,2.30
2023-04-02T14:48:48.769Z,2.15
2023-04-02T14:54:22.694Z,3.45
2023-04-02T14:59:32.578Z,2.33
2023-04-02T15:04:43.203Z,2.40
2023-04-02T15:09:52.063Z,2.50
2023-04-02T15:15:02.288Z,2.35
2023-04-02T15:20:16.443Z,2.22
2023-04-02T15:25:21.027Z,2.72
2023-04-02T15:30:29.451Z,2.80
2023-04-02T15:35:45.507Z,2.35
2023-04-02T15:41:15.341Z,2.97
2023-04-02T15:46:29.284Z,2.97
2023-04-02T15:51:37.097Z,3.65
2023-04-02T15:57:08.926Z,3.03
2023-04-02T16:02:32.738Z,3.00
2023-04-02T16:08:11.340Z,3.00
2023-04-02T16:13:35.829Z,3.30
2023-04-02T16:19:15.681Z,3.67
2023-04-02T16:24:18.585Z,3.75
2023-04-02T16:29:47.025Z,3.55
2023-04-02T16:35:41.835Z,4.05
2023-04-02T16:41:07.719Z,4.38
2023-04-02T16:46:40.547Z,3.95
2023-04-02T16:52:02.378Z,4.50
2023-04-02T16:57:23.188Z,4.38
2023-04-02T17:02:46.395Z,4.07
2023-04-02T17:13:19.592Z,3.60
2023-04-02T17:18:24.751Z,3.60
2023-04-02T17:23:28.239Z,3.80
2023-04-02T17:28:36.966Z,3.78
2023-04-02T17:33:39.023Z,3.97
2023-04-02T17:38:59.804Z,4.05
2023-04-02T17:44:07.708Z,3.30
2023-04-02T17:49:25.310Z,3.28
2023-04-02T17:54:46.732Z,3.13
2023-04-02T18:00:16.167Z,3.00
2023-04-02T18:05:30.808Z,3.10
2023-04-02T18:11:00.219Z,3.17
2023-04-02T18:16:20.388Z,2.75
2023-04-02T18:21:43.423Z,2.80
2023-04-02T18:27:09.533Z,3.10
2023-04-02T18:32:26.118Z,3.08
2023-04-02T18:37:30.812Z,3.33
2023-04-02T18:42:51.561Z,3.20
2023-04-02T18:48:12.252Z,3.42
2023-04-02T18:53:17.264Z,4.07
2023-04-02T18:58:52.824Z,3.60
2023-04-02T19:04:03.852Z,4.30
2023-04-02T19:09:34.194Z,4.18
2023-04-02T19:14:35.985Z,4.28
2023-04-02T19:19:42.861Z,4.20
2023-04-02T19:25:07.807Z,4.53
2023-04-02T19:30:26.617Z,4.75
2023-04-02T19:35:35.834Z,4.32
2023-04-02T19:41:03.931Z,4.43
2023-04-02T19:46:06.144Z,4.97
2023-04-02T19:51:07.813Z,4.80
2023-04-02T19:56:09.561Z,4.45
2023-04-02T20:01:11.401Z,4.40
2023-04-02T20:06:13.163Z,4.40
2023-04-02T20:11:15.568Z,5.03
2023-04-02T20:16:17.551Z,5.20
2023-04-02T20:21:19.933Z,5.00
2023-04-02T20:26:22.543Z,4.97
2023-04-02T20:31:24.645Z,4.88
2023-04-02T20:36:26.478Z,4.70
2023-04-02T20:41:28.229Z,4.90
2023-04-02T20:46:30.219Z,5.15
2023-04-02T20:51:32.645Z,5.47
2023-04-02T20:56:34.640Z,4.60
2023-04-02T21:01:37.596Z,5.00
2023-04-02T21:06:40.849Z,5.00
2023-04-02T21:11:43.607Z,4.97
2023-04-02T21:16:45.363Z,4.75
2023-04-02T21:21:47.058Z,5.07
2023-04-02T21:26:49.956Z,4.95
2023-04-02T21:31:52.392Z,5.35
2023-04-02T21:36:54.279Z,4.97
2023-04-02T21:41:56.386Z,5.50
2023-04-02T21:46:58.152Z,5.57
2023-04-02T21:51:59.957Z,5.20
2023-04-02T21:57:01.655Z,5.40
2023-04-02T22:02:04.724Z,5.50
2023-04-02T22:07:06.488Z,5.38
2023-04-02T22:12:08.367Z,5.30
2023-04-02T22:17:10.061Z,5.40
2023-04-02T22:22:11.785Z,5.28
2023-04-02T22:27:13.501Z,5.05
2023-04-02T22:32:15.368Z,5.30
2023-04-02T22:37:17.353Z,5.30
2023-04-02T22:42:19.033Z,3.87
2023-04-02T22:47:20.982Z,4.28
2023-04-02T22:52:22.928Z,3.40
2023-04-02T22:57:24.621Z,3.63
2023-04-02T23:02:27.507Z,3.50
2023-04-02T23:12:31.066Z,3.40
2023-04-02T23:17:32.829Z,3.00
2023-04-02T23:22:34.741Z,3.47
2023-04-02T23:27:36.864Z,3.27
2023-04-02T23:32:38.633Z,3.10
2023-04-02T23:37:41.991Z,3.30
2023-04-02T23:42:44.002Z,2.80
2023-04-02T23:47:45.701Z,2.95
2023-04-02T23:52:47.573Z,2.90
2023-04-02T23:57:49.218Z,2.88
